METAR Data
IDs: Format: Raw Decoded Include TAF

Data at: 2122 UTC 02 Aug 2021

KMKT 022056Z AUTO VRB05KT 10SM CLR 26/12 A3014 RMK AO2 SLP207 T02560122 58012